sensor_id;sensor_type;location;lat;lon;timestamp;pressure;altitude;pressure_sealevel;temperature;humidity
71239;BME280;61342;51.442;7.370;2023-04-12T00:00:18;99201.66;;;11.88;60.92
71239;BME280;61342;51.442;7.370;2023-04-12T00:01:18;99199.56;;;11.89;61.14
71239;BME280;61342;51.442;7.370;2023-04-12T00:02:18;99184.34;;;11.81;60.97
71239;BME280;61342;51.442;7.370;2023-04-12T00:03:19;99171.91;;;11.86;61.03
71239;BME280;61342;51.442;7.370;2023-04-12T00:04:19;99179.97;;;11.87;61.26
71239;BME280;61342;51.442;7.370;2023-04-12T00:05:22;99180.00;;;11.95;61.07
71239;BME280;61342;51.442;7.370;2023-04-12T00:06:26;99165.84;;;11.97;60.67
71239;BME280;61342;51.442;7.370;2023-04-12T00:07:31;99147.81;;;12.04;60.60
71239;BME280;61342;51.442;7.370;2023-04-12T00:08:32;99166.56;;;12.25;60.49
71239;BME280;61342;51.442;7.370;2023-04-12T00:09:35;99150.25;;;12.27;60.34
71239;BME280;61342;51.442;7.370;2023-04-12T00:10:37;99151.84;;;12.36;59.54
71239;BME280;61342;51.442;7.370;2023-04-12T00:11:37;99149.16;;;12.38;59.78
71239;BME280;61342;51.442;7.370;2023-04-12T00:12:37;99143.03;;;12.41;59.67
71239;BME280;61342;51.442;7.370;2023-04-12T00:13:39;99157.50;;;12.49;59.87
71239;BME280;61342;51.442;7.370;2023-04-12T00:14:40;99160.91;;;12.47;59.90
71239;BME280;61342;51.442;7.370;2023-04-12T00:15:40;99158.81;;;12.48;59.85
71239;BME280;61342;51.442;7.370;2023-04-12T00:16:40;99151.50;;;12.47;59.66
71239;BME280;61342;51.442;7.370;2023-04-12T00:17:43;99158.41;;;12.44;59.96
71239;BME280;61342;51.442;7.370;2023-04-12T00:18:43;99147.41;;;12.35;59.96
71239;BME280;61342;51.442;7.370;2023-04-12T00:19:46;99162.03;;;12.37;60.17
71239;BME280;61342;51.442;7.370;2023-04-12T00:20:46;99154.91;;;12.38;60.37
71239;BME280;61342;51.442;7.370;2023-04-12T00:21:47;99143.31;;;12.23;60.58
71239;BME280;61342;51.442;7.370;2023-04-12T00:22:47;99141.44;;;12.25;60.29
71239;BME280;61342;51.442;7.370;2023-04-12T00:23:48;99131.41;;;12.19;60.41
71239;BME280;61342;51.442;7.370;2023-04-12T00:24:48;99143.09;;;12.21;60.71
71239;BME280;61342;51.442;7.370;2023-04-12T00:25:48;99144.88;;;12.24;60.32
71239;BME280;61342;51.442;7.370;2023-04-12T00:26:49;99142.72;;;12.17;60.63
71239;BME280;61342;51.442;7.370;2023-04-12T00:27:50;99144.25;;;12.18;60.75
71239;BME280;61342;51.442;7.370;2023-04-12T00:28:50;99145.41;;;12.15;60.52
71239;BME280;61342;51.442;7.370;2023-04-12T00:29:50;99141.31;;;12.10;60.86
71239;BME280;61342;51.442;7.370;2023-04-12T00:30:51;99140.38;;;12.08;60.91
71239;BME280;61342;51.442;7.370;2023-04-12T00:31:51;99143.25;;;12.08;61.02
71239;BME280;61342;51.442;7.370;2023-04-12T00:32:51;99151.69;;;12.06;61.07
71239;BME280;61342;51.442;7.370;2023-04-12T00:33:52;99135.53;;;12.03;60.87
71239;BME280;61342;51.442;7.370;2023-04-12T00:34:52;99138.19;;;12.01;61.37
71239;BME280;61342;51.442;7.370;2023-04-12T00:35:52;99130.88;;;12.00;61.31
71239;BME280;61342;51.442;7.370;2023-04-12T00:36:53;99129.94;;;11.98;61.35
71239;BME280;61342;51.442;7.370;2023-04-12T00:37:54;99135.47;;;11.96;61.59
71239;BME280;61342;51.442;7.370;2023-04-12T00:38:54;99131.63;;;11.93;61.66
71239;BME280;61342;51.442;7.370;2023-04-12T00:39:55;99139.50;;;11.93;61.74
71239;BME280;61342;51.442;7.370;2023-04-12T00:40:55;99130.44;;;11.89;61.72
71239;BME280;61342;51.442;7.370;2023-04-12T00:41:56;99123.09;;;11.80;61.79
71239;BME280;61342;51.442;7.370;2023-04-12T00:42:57;99114.25;;;11.78;61.85
71239;BME280;61342;51.442;7.370;2023-04-12T00:43:57;99114.81;;;11.77;62.04
71239;BME280;61342;51.442;7.370;2023-04-12T00:44:57;99126.19;;;11.82;62.07
71239;BME280;61342;51.442;7.370;2023-04-12T00:45:58;99104.41;;;11.74;61.98
71239;BME280;61342;51.442;7.370;2023-04-12T00:46:59;99126.94;;;11.83;62.09
71239;BME280;61342;51.442;7.370;2023-04-12T00:48:00;99110.41;;;11.76;62.42
71239;BME280;61342;51.442;7.370;2023-04-12T00:49:01;99108.13;;;11.82;62.50
71239;BME280;61342;51.442;7.370;2023-04-12T00:50:05;99102.00;;;11.85;62.56
71239;BME280;61342;51.442;7.370;2023-04-12T00:51:07;99085.94;;;11.90;62.31
71239;BME280;61342;51.442;7.370;2023-04-12T00:52:11;99105.19;;;12.02;62.02
71239;BME280;61342;51.442;7.370;2023-04-12T00:53:17;99092.56;;;12.12;61.93
71239;BME280;61342;51.442;7.370;2023-04-12T00:54:17;99105.66;;;12.21;61.66
71239;BME280;61342;51.442;7.370;2023-04-12T00:55:19;99107.03;;;12.27;61.52
71239;BME280;61342;51.442;7.370;2023-04-12T00:56:19;99099.19;;;12.28;61.69
71239;BME280;61342;51.442;7.370;2023-04-12T00:57:22;99097.63;;;12.27;61.66
71239;BME280;61342;51.442;7.370;2023-04-12T00:58:23;99093.72;;;12.17;61.44
71239;BME280;61342;51.442;7.370;2023-04-12T00:59:23;99109.34;;;12.29;61.16
71239;BME280;61342;51.442;7.370;2023-04-12T01:00:24;99101.44;;;12.22;61.89
71239;BME280;61342;51.442;7.370;2023-04-12T01:01:24;99099.91;;;12.21;61.73
71239;BME280;61342;51.442;7.370;2023-04-12T01:02:24;99092.41;;;12.18;61.72
71239;BME280;61342;51.442;7.370;2023-04-12T01:03:25;99084.28;;;12.09;62.07
71239;BME280;61342;51.442;7.370;2023-04-12T01:04:29;99092.75;;;12.07;62.31
71239;BME280;61342;51.442;7.370;2023-04-12T01:05:42;99100.59;;;12.07;62.69
71239;BME280;61342;51.442;7.370;2023-04-12T01:07:19;99095.78;;;12.02;62.92
71239;BME280;61342;51.442;7.370;2023-04-12T01:10:09;99085.13;;;11.89;63.24
71239;BME280;61342;51.442;7.370;2023-04-12T01:11:52;99092.63;;;11.85;63.52
71239;BME280;61342;51.442;7.370;2023-04-12T01:13:14;99090.09;;;11.81;63.68
71239;BME280;61342;51.442;7.370;2023-04-12T01:14:45;99084.28;;;11.74;63.96
71239;BME280;61342;51.442;7.370;2023-04-12T01:15:53;99067.94;;;11.69;64.30
71239;BME280;61342;51.442;7.370;2023-04-12T01:17:02;99070.84;;;11.69;64.60
71239;BME280;61342;51.442;7.370;2023-04-12T01:18:15;99070.03;;;11.68;64.62
71239;BME280;61342;51.442;7.370;2023-04-12T01:20:24;99056.38;;;11.61;65.22
71239;BME280;61342;51.442;7.370;2023-04-12T01:21:34;99056.94;;;11.60;65.61
71239;BME280;61342;51.442;7.370;2023-04-12T01:23:14;99052.88;;;11.55;65.87
71239;BME280;61342;51.442;7.370;2023-04-12T01:24:25;99054.81;;;11.53;66.04
71239;BME280;61342;51.442;7.370;2023-04-12T01:26:47;99050.69;;;11.48;66.65
71239;BME280;61342;51.442;7.370;2023-04-12T01:27:53;99051.84;;;11.46;66.91
71239;BME280;61342;51.442;7.370;2023-04-12T01:28:56;99046.66;;;11.44;66.98
71239;BME280;61342;51.442;7.370;2023-04-12T01:29:57;99048.38;;;11.47;67.58
71239;BME280;61342;51.442;7.370;2023-04-12T01:31:02;99039.19;;;11.48;67.46
71239;BME280;61342;51.442;7.370;2023-04-12T01:32:04;99046.09;;;11.46;67.49
71239;BME280;61342;51.442;7.370;2023-04-12T01:33:05;99036.13;;;11.47;67.70
71239;BME280;61342;51.442;7.370;2023-04-12T01:34:08;99039.00;;;11.47;67.97
71239;BME280;61342;51.442;7.370;2023-04-12T01:35:11;99036.88;;;11.47;68.20
71239;BME280;61342;51.442;7.370;2023-04-12T01:36:16;99023.06;;;11.46;68.38
71239;BME280;61342;51.442;7.370;2023-04-12T01:37:17;99028.81;;;11.46;68.36
71239;BME280;61342;51.442;7.370;2023-04-12T01:38:19;99018.63;;;11.45;68.52
71239;BME280;61342;51.442;7.370;2023-04-12T01:39:20;99020.94;;;11.46;68.74
71239;BME280;61342;51.442;7.370;2023-04-12T01:40:21;99021.72;;;11.47;69.03
71239;BME280;61342;51.442;7.370;2023-04-12T01:41:21;99021.50;;;11.45;68.94
71239;BME280;61342;51.442;7.370;2023-04-12T01:42:22;99015.00;;;11.44;69.23
71239;BME280;61342;51.442;7.370;2023-04-12T01:43:22;99022.09;;;11.43;69.42
71239;BME280;61342;51.442;7.370;2023-04-12T01:44:22;99015.56;;;11.43;69.46
71239;BME280;61342;51.442;7.370;2023-04-12T01:45:23;99011.50;;;11.38;69.56
71239;BME280;61342;51.442;7.370;2023-04-12T01:46:23;99010.22;;;11.47;69.70
71239;BME280;61342;51.442;7.370;2023-04-12T01:47:24;99020.69;;;11.57;69.88
71239;BME280;61342;51.442;7.370;2023-04-12T01:48:25;99014.59;;;11.68;69.69
71239;BME280;61342;51.442;7.370;2023-04-12T01:49:36;99001.56;;;11.74;69.43
71239;BME280;61342;51.442;7.370;2023-04-12T01:51:48;98994.19;;;11.94;68.85
71239;BME280;61342;51.442;7.370;2023-04-12T01:53:22;98988.81;;;11.98;68.81
71239;BME280;61342;51.442;7.370;2023-04-12T01:54:30;98990.56;;;12.01;68.65
71239;BME280;61342;51.442;7.370;2023-04-12T01:55:32;98992.66;;;12.00;68.93
71239;BME280;61342;51.442;7.370;2023-04-12T01:56:41;98990.72;;;11.95;69.11
71239;BME280;61342;51.442;7.370;2023-04-12T01:57:42;98989.19;;;11.94;68.91
71239;BME280;61342;51.442;7.370;2023-04-12T01:58:46;98986.66;;;11.91;69.44
71239;BME280;61342;51.442;7.370;2023-04-12T01:59:48;98977.63;;;11.87;69.53
71239;BME280;61342;51.442;7.370;2023-04-12T02:00:50;98982.63;;;11.86;69.60
71239;BME280;61342;51.442;7.370;2023-04-12T02:01:51;98971.28;;;11.81;69.73
71239;BME280;61342;51.442;7.370;2023-04-12T02:02:52;98968.97;;;11.79;70.07
71239;BME280;61342;51.442;7.370;2023-04-12T02:03:53;98968.00;;;11.77;70.11
71239;BME280;61342;51.442;7.370;2023-04-12T02:04:54;98973.34;;;11.73;70.33
71239;BME280;61342;51.442;7.370;2023-04-12T02:05:57;98968.19;;;11.71;70.46
71239;BME280;61342;51.442;7.370;2023-04-12T02:06:59;98950.81;;;11.56;70.61
71239;BME280;61342;51.442;7.370;2023-04-12T02:08:01;98963.13;;;11.64;70.91
71239;BME280;61342;51.442;7.370;2023-04-12T02:09:03;98958.75;;;11.63;70.88
71239;BME280;61342;51.442;7.370;2023-04-12T02:10:05;98952.94;;;11.56;71.52
71239;BME280;61342;51.442;7.370;2023-04-12T02:11:11;98950.41;;;11.52;71.36
71239;BME280;61342;51.442;7.370;2023-04-12T02:12:13;98943.13;;;11.51;71.63
71239;BME280;61342;51.442;7.370;2023-04-12T02:13:14;98944.03;;;11.47;71.91
71239;BME280;61342;51.442;7.370;2023-04-12T02:14:15;98934.78;;;11.41;72.02
71239;BME280;61342;51.442;7.370;2023-04-12T02:15:15;98939.41;;;11.44;72.08
71239;BME280;61342;51.442;7.370;2023-04-12T02:16:15;98947.63;;;11.40;72.39
71239;BME280;61342;51.442;7.370;2023-04-12T02:17:17;98934.38;;;11.37;72.35
71239;BME280;61342;51.442;7.370;2023-04-12T02:18:17;98937.06;;;11.35;72.63
71239;BME280;61342;51.442;7.370;2023-04-12T02:19:18;98929.78;;;11.34;72.92
71239;BME280;61342;51.442;7.370;2023-04-12T02:20:22;98938.75;;;11.30;72.93
71239;BME280;61342;51.442;7.370;2023-04-12T02:21:23;98932.81;;;11.28;73.21
71239;BME280;61342;51.442;7.370;2023-04-12T02:22:25;98915.91;;;11.25;73.23
71239;BME280;61342;51.442;7.370;2023-04-12T02:23:25;98928.75;;;11.24;73.52
71239;BME280;61342;51.442;7.370;2023-04-12T02:24:26;98922.81;;;11.22;73.82
71239;BME280;61342;51.442;7.370;2023-04-12T02:25:26;98920.63;;;11.15;73.86
71239;BME280;61342;51.442;7.370;2023-04-12T02:26:26;98908.19;;;11.12;74.05
71239;BME280;61342;51.442;7.370;2023-04-12T02:27:27;98914.88;;;11.15;74.35
71239;BME280;61342;51.442;7.370;2023-04-12T02:28:27;98911.59;;;11.11;74.73
71239;BME280;61342;51.442;7.370;2023-04-12T02:29:27;98902.22;;;11.10;74.54
71239;BME280;61342;51.442;7.370;2023-04-12T02:30:28;98905.44;;;11.07;74.48
71239;BME280;61342;51.442;7.370;2023-04-12T02:31:28;98908.13;;;11.05;74.59
71239;BME280;61342;51.442;7.370;2023-04-12T02:32:29;98899.69;;;11.07;74.79
71239;BME280;61342;51.442;7.370;2023-04-12T02:33:30;98878.34;;;10.95;74.99
71239;BME280;61342;51.442;7.370;2023-04-12T02:34:30;98881.22;;;10.95;75.21
71239;BME280;61342;51.442;7.370;2023-04-12T02:35:37;98880.47;;;10.94;75.31
71239;BME280;61342;51.442;7.370;2023-04-12T02:36:37;98889.72;;;11.00;75.47
71239;BME280;61342;51.442;7.370;2023-04-12T02:37:38;98875.47;;;10.95;75.66
71239;BME280;61342;51.442;7.370;2023-04-12T02:38:39;98881.22;;;10.95;75.87
71239;BME280;61342;51.442;7.370;2023-04-12T02:39:39;98871.25;;;10.96;75.93
71239;BME280;61342;51.442;7.370;2023-04-12T02:40:40;98860.50;;;10.89;75.73
71239;BME280;61342;51.442;7.370;2023-04-12T02:41:41;98872.41;;;10.93;76.12
71239;BME280;61342;51.442;7.370;2023-04-12T02:42:42;98864.28;;;10.84;76.13
71239;BME280;61342;51.442;7.370;2023-04-12T02:43:42;98875.06;;;10.91;76.40
71239;BME280;61342;51.442;7.370;2023-04-12T02:44:43;98875.44;;;10.88;76.31
71239;BME280;61342;51.442;7.370;2023-04-12T02:45:47;98870.44;;;10.88;76.39
71239;BME280;61342;51.442;7.370;2023-04-12T02:46:48;98871.78;;;10.87;76.48
71239;BME280;61342;51.442;7.370;2023-04-12T02:47:48;98868.16;;;10.87;76.51
71239;BME280;61342;51.442;7.370;2023-04-12T02:48:49;98865.84;;;10.85;76.80
71239;BME280;61342;51.442;7.370;2023-04-12T02:49:50;98859.69;;;10.81;76.82
71239;BME280;61342;51.442;7.370;2023-04-12T02:50:50;98858.34;;;10.82;77.04
71239;BME280;61342;51.442;7.370;2023-04-12T02:51:50;98862.75;;;10.83;76.69
71239;BME280;61342;51.442;7.370;2023-04-12T02:52:51;98848.19;;;10.81;76.84
71239;BME280;61342;51.442;7.370;2023-04-12T02:53:51;98850.84;;;10.79;77.07
71239;BME280;61342;51.442;7.370;2023-04-12T02:54:51;98844.69;;;10.75;77.02
71239;BME280;61342;51.442;7.370;2023-04-12T02:55:52;98847.78;;;10.77;77.57
71239;BME280;61342;51.442;7.370;2023-04-12T02:56:52;98844.69;;;10.75;77.63
71239;BME280;61342;51.442;7.370;2023-04-12T02:57:52;98839.31;;;10.72;77.39
71239;BME280;61342;51.442;7.370;2023-04-12T02:58:54;98832.78;;;10.71;77.71
71239;BME280;61342;51.442;7.370;2023-04-12T02:59:54;98818.22;;;10.69;78.04
71239;BME280;61342;51.442;7.370;2023-04-12T03:00:55;98819.75;;;10.70;78.00
71239;BME280;61342;51.442;7.370;2023-04-12T03:01:56;98815.91;;;10.68;78.17
71239;BME280;61342;51.442;7.370;2023-04-12T03:02:58;98810.19;;;10.68;78.09
71239;BME280;61342;51.442;7.370;2023-04-12T03:03:58;98809.38;;;10.67;78.02
71239;BME280;61342;51.442;7.370;2023-04-12T03:05:01;98806.72;;;10.69;78.38
71239;BME280;61342;51.442;7.370;2023-04-12T03:06:04;98814.94;;;10.65;78.51
71239;BME280;61342;51.442;7.370;2023-04-12T03:07:05;98796.91;;;10.57;78.36
71239;BME280;61342;51.442;7.370;2023-04-12T03:08:05;98802.09;;;10.66;78.48
71239;BME280;61342;51.442;7.370;2023-04-12T03:09:06;98804.78;;;10.64;78.41
71239;BME280;61342;51.442;7.370;2023-04-12T03:10:07;98804.22;;;10.66;78.87
71239;BME280;61342;51.442;7.370;2023-04-12T03:11:07;98791.56;;;10.69;78.53
71239;BME280;61342;51.442;7.370;2023-04-12T03:12:08;98787.22;;;10.75;78.57
71239;BME280;61342;51.442;7.370;2023-04-12T03:13:08;98789.38;;;10.82;78.69
71239;BME280;61342;51.442;7.370;2023-04-12T03:14:11;98787.50;;;10.92;78.54
71239;BME280;61342;51.442;7.370;2023-04-12T03:15:12;98781.97;;;11.01;78.15
71239;BME280;61342;51.442;7.370;2023-04-12T03:16:19;98776.66;;;11.13;77.88
71239;BME280;61342;51.442;7.370;2023-04-12T03:17:21;98793.16;;;11.20;77.43
71239;BME280;61342;51.442;7.370;2023-04-12T03:18:22;98774.78;;;11.23;77.54
71239;BME280;61342;51.442;7.370;2023-04-12T03:19:23;98772.09;;;11.25;77.50
71239;BME280;61342;51.442;7.370;2023-04-12T03:20:23;98774.78;;;11.23;77.24
71239;BME280;61342;51.442;7.370;2023-04-12T03:21:24;98771.91;;;11.23;77.38
71239;BME280;61342;51.442;7.370;2023-04-12T03:22:25;98758.06;;;11.21;77.27
71239;BME280;61342;51.442;7.370;2023-04-12T03:23:25;98770.16;;;11.20;77.37
71239;BME280;61342;51.442;7.370;2023-04-12T03:24:26;98761.69;;;11.14;77.55
71239;BME280;61342;51.442;7.370;2023-04-12T03:25:27;98744.41;;;11.07;77.65
71239;BME280;61342;51.442;7.370;2023-04-12T03:26:27;98736.13;;;10.96;77.41
71239;BME280;61342;51.442;7.370;2023-04-12T03:27:27;98757.28;;;11.06;78.01
71239;BME280;61342;51.442;7.370;2023-04-12T03:28:28;98728.47;;;10.98;78.13
71239;BME280;61342;51.442;7.370;2023-04-12T03:29:31;98750.34;;;11.01;78.15
71239;BME280;61342;51.442;7.370;2023-04-12T03:30:32;98742.47;;;10.94;78.46
71239;BME280;61342;51.442;7.370;2023-04-12T03:31:32;98748.56;;;10.91;78.56
71239;BME280;61342;51.442;7.370;2023-04-12T03:32:32;98731.31;;;10.91;78.56
71239;BME280;61342;51.442;7.370;2023-04-12T03:33:33;98733.03;;;10.87;78.98
71239;BME280;61342;51.442;7.370;2023-04-12T03:34:33;98723.78;;;10.73;78.73
71239;BME280;61342;51.442;7.370;2023-04-12T03:35:34;98736.84;;;10.82;78.99
71239;BME280;61342;51.442;7.370;2023-04-12T03:36:34;98719.94;;;10.71;79.32
71239;BME280;61342;51.442;7.370;2023-04-12T03:37:35;98729.94;;;10.77;79.10
71239;BME280;61342;51.442;7.370;2023-04-12T03:38:35;98730.31;;;10.74;79.31
71239;BME280;61342;51.442;7.370;2023-04-12T03:39:35;98721.63;;;10.66;79.75
71239;BME280;61342;51.442;7.370;2023-04-12T03:40:36;98716.06;;;10.61;79.80
71239;BME280;61342;51.442;7.370;2023-04-12T03:41:36;98711.28;;;10.63;79.88
71239;BME280;61342;51.442;7.370;2023-04-12T03:42:36;98697.50;;;10.62;80.31
71239;BME280;61342;51.442;7.370;2023-04-12T03:43:37;98714.72;;;10.62;79.96
71239;BME280;61342;51.442;7.370;2023-04-12T03:44:37;98699.59;;;10.61;80.49
71239;BME280;61342;51.442;7.370;2023-04-12T03:45:38;98698.22;;;10.55;80.48
71239;BME280;61342;51.442;7.370;2023-04-12T03:46:38;98696.88;;;10.56;80.63
71239;BME280;61342;51.442;7.370;2023-04-12T03:47:39;98693.06;;;10.53;80.38
71239;BME280;61342;51.442;7.370;2023-04-12T03:48:40;98695.16;;;10.53;80.54
71239;BME280;61342;51.442;7.370;2023-04-12T03:49:40;98705.09;;;10.52;80.49
71239;BME280;61342;51.442;7.370;2023-04-12T03:50:41;98699.72;;;10.48;80.85
71239;BME280;61342;51.442;7.370;2023-04-12T03:51:43;98684.03;;;10.49;80.78
71239;BME280;61342;51.442;7.370;2023-04-12T03:52:44;98681.53;;;10.46;80.58
71239;BME280;61342;51.442;7.370;2023-04-12T03:53:45;98670.59;;;10.44;80.63
71239;BME280;61342;51.442;7.370;2023-04-12T03:54:45;98679.41;;;10.46;80.59
71239;BME280;61342;51.442;7.370;2023-04-12T03:55:46;98680.19;;;10.47;80.71
71239;BME280;61342;51.442;7.370;2023-04-12T03:56:46;98665.38;;;10.35;80.37
71239;BME280;61342;51.442;7.370;2023-04-12T03:57:46;98675.56;;;10.44;80.85
71239;BME280;61342;51.442;7.370;2023-04-12T03:58:47;98680.56;;;10.43;80.92
71239;BME280;61342;51.442;7.370;2023-04-12T03:59:48;98676.13;;;10.42;80.75
71239;BME280;61342;51.442;7.370;2023-04-12T04:00:48;98680.56;;;10.43;80.89
71239;BME280;61342;51.442;7.370;2023-04-12T04:01:49;98691.28;;;10.43;81.39
71239;BME280;61342;51.442;7.370;2023-04-12T04:02:49;98684.75;;;10.42;81.12
71239;BME280;61342;51.442;7.370;2023-04-12T04:03:51;98675.53;;;10.36;81.23
71239;BME280;61342;51.442;7.370;2023-04-12T04:04:52;98679.56;;;10.41;81.67
71239;BME280;61342;51.442;7.370;2023-04-12T04:05:52;98673.06;;;10.40;81.36
71239;BME280;61342;51.442;7.370;2023-04-12T04:06:53;98664.41;;;10.33;81.39
71239;BME280;61342;51.442;7.370;2023-04-12T04:07:53;98653.28;;;10.30;81.31
71239;BME280;61342;51.442;7.370;2023-04-12T04:08:57;98660.78;;;10.33;81.31
71239;BME280;61342;51.442;7.370;2023-04-12T04:09:58;98646.22;;;10.31;81.30
71239;BME280;61342;51.442;7.370;2023-04-12T04:10:59;98658.66;;;10.33;81.52
71239;BME280;61342;51.442;7.370;2023-04-12T04:11:59;98639.50;;;10.28;81.78
71239;BME280;61342;51.442;7.370;2023-04-12T04:13:01;98644.88;;;10.32;81.62
71239;BME280;61342;51.442;7.370;2023-04-12T04:14:01;98637.41;;;10.29;81.54
71239;BME280;61342;51.442;7.370;2023-04-12T04:15:01;98637.81;;;10.33;81.96
71239;BME280;61342;51.442;7.370;2023-04-12T04:16:04;98641.09;;;10.36;81.65
71239;BME280;61342;51.442;7.370;2023-04-12T04:17:04;98639.53;;;10.35;82.05
71239;BME280;61342;51.442;7.370;2023-04-12T04:18:06;98629.19;;;10.33;81.90
71239;BME280;61342;51.442;7.370;2023-04-12T04:19:06;98634.56;;;10.36;81.94
71239;BME280;61342;51.442;7.370;2023-04-12T04:20:08;98629.19;;;10.33;81.87
71239;BME280;61342;51.442;7.370;2023-04-12T04:21:08;98626.84;;;10.24;81.90
71239;BME280;61342;51.442;7.370;2023-04-12T04:22:09;98635.69;;;10.33;82.19
71239;BME280;61342;51.442;7.370;2023-04-12T04:23:11;98623.41;;;10.25;81.91
71239;BME280;61342;51.442;7.370;2023-04-12T04:24:11;98638.16;;;10.29;82.12
71239;BME280;61342;51.442;7.370;2023-04-12T04:25:14;98639.31;;;10.33;82.44
71239;BME280;61342;51.442;7.370;2023-04-12T04:26:15;98630.91;;;10.35;82.53
71239;BME280;61342;51.442;7.370;2023-04-12T04:27:16;98626.72;;;10.36;82.09
71239;BME280;61342;51.442;7.370;2023-04-12T04:28:16;98629.59;;;10.36;82.22
71239;BME280;61342;51.442;7.370;2023-04-12T04:29:17;98629.59;;;10.36;82.02
71239;BME280;61342;51.442;7.370;2023-04-12T04:30:17;98611.56;;;10.36;82.32
71239;BME280;61342;51.442;7.370;2023-04-12T04:31:18;98615.81;;;10.35;82.37
71239;BME280;61342;51.442;7.370;2023-04-12T04:32:18;98598.72;;;10.30;82.44
71239;BME280;61342;51.442;7.370;2023-04-12T04:33:19;98600.09;;;10.36;82.21
71239;BME280;61342;51.442;7.370;2023-04-12T04:34:20;98601.03;;;10.31;82.29
71239;BME280;61342;51.442;7.370;2023-04-12T04:35:21;98585.31;;;10.25;82.42
71239;BME280;61342;51.442;7.370;2023-04-12T04:36:23;98585.50;;;10.27;82.53
71239;BME280;61342;51.442;7.370;2023-04-12T04:37:23;98590.50;;;10.33;82.61
71239;BME280;61342;51.442;7.370;2023-04-12T04:38:24;98591.84;;;10.33;82.39
71239;BME280;61342;51.442;7.370;2023-04-12T04:39:25;98599.31;;;10.35;82.27
71239;BME280;61342;51.442;7.370;2023-04-12T04:40:28;98601.22;;;10.33;82.51
71239;BME280;61342;51.442;7.370;2023-04-12T04:41:29;98596.47;;;10.35;82.68
71239;BME280;61342;51.442;7.370;2023-04-12T04:42:33;98593.19;;;10.32;82.61
71239;BME280;61342;51.442;7.370;2023-04-12T04:43:34;98581.66;;;10.24;82.69
71239;BME280;61342;51.442;7.370;2023-04-12T04:44:34;98592.84;;;10.35;82.81
71239;BME280;61342;51.442;7.370;2023-04-12T04:45:35;98586.88;;;10.33;82.61
71239;BME280;61342;51.442;7.370;2023-04-12T04:46:36;98590.50;;;10.33;82.52
71239;BME280;61342;51.442;7.370;2023-04-12T04:47:37;98598.00;;;10.36;82.65
71239;BME280;61342;51.442;7.370;2023-04-12T04:48:38;98598.56;;;10.35;83.01
71239;BME280;61342;51.442;7.370;2023-04-12T04:49:39;98586.69;;;10.31;82.69
71239;BME280;61342;51.442;7.370;2023-04-12T04:50:40;98592.03;;;10.34;82.89
71239;BME280;61342;51.442;7.370;2023-04-12T04:51:41;98597.78;;;10.34;83.05
71239;BME280;61342;51.442;7.370;2023-04-12T04:52:41;98597.59;;;10.33;82.86
71239;BME280;61342;51.442;7.370;2023-04-12T04:53:42;98582.63;;;10.27;82.93
71239;BME280;61342;51.442;7.370;2023-04-12T04:54:42;98576.13;;;10.26;83.00
71239;BME280;61342;51.442;7.370;2023-04-12T04:55:42;98581.69;;;10.32;82.83
71239;BME280;61342;51.442;7.370;2023-04-12T04:56:43;98579.19;;;10.28;82.99
71239;BME280;61342;51.442;7.370;2023-04-12T04:57:43;98582.09;;;10.35;82.63
71239;BME280;61342;51.442;7.370;2023-04-12T04:58:44;98562.53;;;10.27;83.11
71239;BME280;61342;51.442;7.370;2023-04-12T04:59:44;98579.22;;;10.35;83.06
71239;BME280;61342;51.442;7.370;2023-04-12T05:00:45;98580.56;;;10.34;83.18
71239;BME280;61342;51.442;7.370;2023-04-12T05:01:48;98571.94;;;10.34;83.26
71239;BME280;61342;51.442;7.370;2023-04-12T05:02:48;98554.88;;;10.29;83.14
71239;BME280;61342;51.442;7.370;2023-04-12T05:03:51;98572.16;;;10.36;83.13
71239;BME280;61342;51.442;7.370;2023-04-12T05:04:54;98569.06;;;10.34;83.09
71239;BME280;61342;51.442;7.370;2023-04-12T05:05:55;98573.69;;;10.37;83.29
71239;BME280;61342;51.442;7.370;2023-04-12T05:06:55;98568.50;;;10.36;83.09
71239;BME280;61342;51.442;7.370;2023-04-12T05:07:56;98562.22;;;10.37;83.20
71239;BME280;61342;51.442;7.370;2023-04-12T05:08:57;98570.81;;;10.37;83.33
71239;BME280;61342;51.442;7.370;2023-04-12T05:09:57;98554.91;;;10.36;83.17
71239;BME280;61342;51.442;7.370;2023-04-12T05:10:57;98562.97;;;10.38;83.34
71239;BME280;61342;51.442;7.370;2023-04-12T05:11:58;98557.22;;;10.38;83.17
71239;BME280;61342;51.442;7.370;2023-04-12T05:12:58;98561.63;;;10.39;83.20
71239;BME280;61342;51.442;7.370;2023-04-12T05:13:58;98559.50;;;10.39;83.37
71239;BME280;61342;51.442;7.370;2023-04-12T05:14:59;98535.00;;;10.31;83.25
71239;BME280;61342;51.442;7.370;2023-04-12T05:16:00;98551.47;;;10.38;83.30
71239;BME280;61342;51.442;7.370;2023-04-12T05:17:00;98542.66;;;10.36;83.17
71239;BME280;61342;51.442;7.370;2023-04-12T05:18:01;98556.66;;;10.39;83.27
71239;BME280;61342;51.442;7.370;2023-04-12T05:19:01;98539.22;;;10.37;83.06
71239;BME280;61342;51.442;7.370;2023-04-12T05:20:05;98548.78;;;10.40;83.29
71239;BME280;61342;51.442;7.370;2023-04-12T05:21:07;98540.75;;;10.38;83.45
71239;BME280;61342;51.442;7.370;2023-04-12T05:22:08;98538.09;;;10.40;83.62
71239;BME280;61342;51.442;7.370;2023-04-12T05:23:08;98533.88;;;10.41;83.46
71239;BME280;61342;51.442;7.370;2023-04-12T05:24:08;98539.41;;;10.39;83.29
71239;BME280;61342;51.442;7.370;2023-04-12T05:25:09;98538.09;;;10.40;83.75
71239;BME280;61342;51.442;7.370;2023-04-12T05:26:09;98539.41;;;10.39;83.61
71239;BME280;61342;51.442;7.370;2023-04-12T05:27:10;98535.78;;;10.39;84.05
71239;BME280;61342;51.442;7.370;2023-04-12T05:28:10;98529.47;;;10.40;83.89
71239;BME280;61342;51.442;7.370;2023-04-12T05:29:13;98535.22;;;10.40;84.17
71239;BME280;61342;51.442;7.370;2023-04-12T05:30:13;98532.91;;;10.39;84.49
71239;BME280;61342;51.442;7.370;2023-04-12T05:31:14;98528.13;;;10.41;84.52
71239;BME280;61342;51.442;7.370;2023-04-12T05:32:14;98533.47;;;10.37;84.61
71239;BME280;61342;51.442;7.370;2023-04-12T05:33:14;98525.06;;;10.39;84.73